sensor_id;sensor_type;location;lat;lon;timestamp;P1;durP1;ratioP1;P2;durP2;ratioP2
30948;SDS011;17637;51.984;21.208;2022-12-10T00:00:35;215.57;;;115.13;;
30948;SDS011;17637;51.984;21.208;2022-12-10T00:03:07;186.45;;;103.40;;
30948;SDS011;17637;51.984;21.208;2022-12-10T00:05:39;195.23;;;105.65;;
30948;SDS011;17637;51.984;21.208;2022-12-10T00:08:11;186.02;;;99.97;;
30948;SDS011;17637;51.984;21.208;2022-12-10T00:10:43;217.07;;;112.47;;
30948;SDS011;17637;51.984;21.208;2022-12-10T00:13:15;239.95;;;117.90;;
30948;SDS011;17637;51.984;21.208;2022-12-10T00:15:47;193.38;;;103.32;;
30948;SDS011;17637;51.984;21.208;2022-12-10T00:18:19;185.05;;;100.20;;
30948;SDS011;17637;51.984;21.208;2022-12-10T00:20:51;176.52;;;96.88;;
30948;SDS011;17637;51.984;21.208;2022-12-10T00:23:24;175.85;;;93.95;;
30948;SDS011;17637;51.984;21.208;2022-12-10T00:26:00;179.95;;;98.13;;
30948;SDS011;17637;51.984;21.208;2022-12-10T00:28:34;177.82;;;98.47;;
30948;SDS011;17637;51.984;21.208;2022-12-10T00:31:11;189.25;;;99.88;;
30948;SDS011;17637;51.984;21.208;2022-12-10T00:33:45;189.20;;;98.05;;
30948;SDS011;17637;51.984;21.208;2022-12-10T00:36:20;195.75;;;104.55;;
30948;SDS011;17637;51.984;21.208;2022-12-10T00:38:53;195.80;;;102.60;;
30948;SDS011;17637;51.984;21.208;2022-12-10T00:41:26;204.98;;;102.30;;
30948;SDS011;17637;51.984;21.208;2022-12-10T00:43:58;172.38;;;93.22;;
30948;SDS011;17637;51.984;21.208;2022-12-10T00:46:30;214.23;;;107.78;;
30948;SDS011;17637;51.984;21.208;2022-12-10T00:49:02;196.95;;;101.50;;
30948;SDS011;17637;51.984;21.208;2022-12-10T00:51:35;210.60;;;105.35;;
30948;SDS011;17637;51.984;21.208;2022-12-10T00:54:07;187.77;;;97.88;;
30948;SDS011;17637;51.984;21.208;2022-12-10T00:56:39;177.68;;;94.40;;
30948;SDS011;17637;51.984;21.208;2022-12-10T00:59:11;179.80;;;93.78;;
30948;SDS011;17637;51.984;21.208;2022-12-10T01:01:43;191.20;;;96.38;;
30948;SDS011;17637;51.984;21.208;2022-12-10T01:04:16;167.13;;;91.32;;
30948;SDS011;17637;51.984;21.208;2022-12-10T01:06:52;164.13;;;88.82;;
30948;SDS011;17637;51.984;21.208;2022-12-10T01:09:26;167.27;;;90.68;;
30948;SDS011;17637;51.984;21.208;2022-12-10T01:12:00;180.85;;;91.85;;
30948;SDS011;17637;51.984;21.208;2022-12-10T01:14:33;180.88;;;94.18;;
30948;SDS011;17637;51.984;21.208;2022-12-10T01:17:05;184.38;;;91.90;;
30948;SDS011;17637;51.984;21.208;2022-12-10T01:19:38;166.98;;;85.13;;
30948;SDS011;17637;51.984;21.208;2022-12-10T01:22:10;182.13;;;92.22;;
30948;SDS011;17637;51.984;21.208;2022-12-10T01:24:42;190.68;;;95.75;;
30948;SDS011;17637;51.984;21.208;2022-12-10T01:27:14;180.52;;;91.40;;
30948;SDS011;17637;51.984;21.208;2022-12-10T01:29:46;201.57;;;96.10;;
30948;SDS011;17637;51.984;21.208;2022-12-10T01:32:18;176.20;;;90.03;;
30948;SDS011;17637;51.984;21.208;2022-12-10T01:34:50;154.10;;;84.85;;
30948;SDS011;17637;51.984;21.208;2022-12-10T01:37:22;158.13;;;82.88;;
30948;SDS011;17637;51.984;21.208;2022-12-10T01:39:54;162.55;;;86.72;;
30948;SDS011;17637;51.984;21.208;2022-12-10T01:42:26;195.05;;;94.05;;
30948;SDS011;17637;51.984;21.208;2022-12-10T01:45:00;210.20;;;98.28;;
30948;SDS011;17637;51.984;21.208;2022-12-10T01:47:35;186.55;;;94.32;;
30948;SDS011;17637;51.984;21.208;2022-12-10T01:50:08;164.55;;;86.55;;
30948;SDS011;17637;51.984;21.208;2022-12-10T01:52:40;176.77;;;87.90;;
30948;SDS011;17637;51.984;21.208;2022-12-10T01:58:12;176.10;;;89.28;;
30948;SDS011;17637;51.984;21.208;2022-12-10T02:00:57;193.13;;;91.78;;
30948;SDS011;17637;51.984;21.208;2022-12-10T02:09:57;216.25;;;94.40;;
30948;SDS011;17637;51.984;21.208;2022-12-10T02:12:39;197.50;;;92.18;;
30948;SDS011;17637;51.984;21.208;2022-12-10T02:15:19;163.85;;;83.57;;
30948;SDS011;17637;51.984;21.208;2022-12-10T02:20:34;162.13;;;80.95;;
30948;SDS011;17637;51.984;21.208;2022-12-10T02:23:16;170.65;;;81.90;;
30948;SDS011;17637;51.984;21.208;2022-12-10T02:31:26;189.60;;;82.95;;
30948;SDS011;17637;51.984;21.208;2022-12-10T02:34:02;168.98;;;79.70;;
30948;SDS011;17637;51.984;21.208;2022-12-10T02:36:38;149.07;;;74.43;;
30948;SDS011;17637;51.984;21.208;2022-12-10T02:39:15;185.25;;;82.95;;
30948;SDS011;17637;51.984;21.208;2022-12-10T02:41:52;158.18;;;75.85;;
30948;SDS011;17637;51.984;21.208;2022-12-10T02:44:25;155.60;;;73.18;;
30948;SDS011;17637;51.984;21.208;2022-12-10T02:47:00;145.25;;;67.95;;
30948;SDS011;17637;51.984;21.208;2022-12-10T02:49:34;160.32;;;70.72;;
30948;SDS011;17637;51.984;21.208;2022-12-10T02:52:09;151.02;;;69.95;;
30948;SDS011;17637;51.984;21.208;2022-12-10T02:54:45;137.63;;;64.20;;
30948;SDS011;17637;51.984;21.208;2022-12-10T03:08:27;111.03;;;56.50;;
30948;SDS011;17637;51.984;21.208;2022-12-10T03:11:12;115.72;;;55.22;;
30948;SDS011;17637;51.984;21.208;2022-12-10T03:16:44;112.75;;;52.00;;
30948;SDS011;17637;51.984;21.208;2022-12-10T03:19:23;123.35;;;56.58;;
30948;SDS011;17637;51.984;21.208;2022-12-10T03:22:00;119.97;;;54.55;;
30948;SDS011;17637;51.984;21.208;2022-12-10T03:24:35;105.55;;;52.85;;
30948;SDS011;17637;51.984;21.208;2022-12-10T03:27:07;123.18;;;56.05;;
30948;SDS011;17637;51.984;21.208;2022-12-10T03:29:46;126.28;;;56.78;;
30948;SDS011;17637;51.984;21.208;2022-12-10T03:32:22;110.35;;;53.00;;
30948;SDS011;17637;51.984;21.208;2022-12-10T03:34:56;112.13;;;51.13;;
30948;SDS011;17637;51.984;21.208;2022-12-10T03:37:30;107.43;;;51.58;;
30948;SDS011;17637;51.984;21.208;2022-12-10T03:40:03;120.47;;;52.88;;
30948;SDS011;17637;51.984;21.208;2022-12-10T03:42:38;114.63;;;52.22;;
30948;SDS011;17637;51.984;21.208;2022-12-10T03:45:10;92.30;;;45.28;;
30948;SDS011;17637;51.984;21.208;2022-12-10T03:47:42;104.15;;;50.03;;
30948;SDS011;17637;51.984;21.208;2022-12-10T03:50:15;92.85;;;46.22;;
30948;SDS011;17637;51.984;21.208;2022-12-10T03:52:47;104.10;;;47.78;;
30948;SDS011;17637;51.984;21.208;2022-12-10T03:55:19;105.03;;;49.97;;
30948;SDS011;17637;51.984;21.208;2022-12-10T03:57:51;91.55;;;44.92;;
30948;SDS011;17637;51.984;21.208;2022-12-10T04:00:24;83.90;;;41.95;;
30948;SDS011;17637;51.984;21.208;2022-12-10T04:02:56;88.75;;;44.78;;
30948;SDS011;17637;51.984;21.208;2022-12-10T04:05:28;86.43;;;43.85;;
30948;SDS011;17637;51.984;21.208;2022-12-10T04:07:59;78.30;;;40.78;;
30948;SDS011;17637;51.984;21.208;2022-12-10T04:10:35;85.22;;;42.08;;
30948;SDS011;17637;51.984;21.208;2022-12-10T04:13:09;83.93;;;43.15;;
30948;SDS011;17637;51.984;21.208;2022-12-10T04:16:00;80.22;;;41.03;;
30948;SDS011;17637;51.984;21.208;2022-12-10T04:21:31;62.30;;;35.45;;
30948;SDS011;17637;51.984;21.208;2022-12-10T04:24:24;69.13;;;35.80;;
30948;SDS011;17637;51.984;21.208;2022-12-10T04:27:18;71.72;;;37.72;;
30948;SDS011;17637;51.984;21.208;2022-12-10T04:29:53;75.60;;;39.80;;
30948;SDS011;17637;51.984;21.208;2022-12-10T04:32:27;88.13;;;42.08;;
30948;SDS011;17637;51.984;21.208;2022-12-10T04:35:00;77.50;;;38.90;;
30948;SDS011;17637;51.984;21.208;2022-12-10T04:37:33;73.72;;;38.45;;
30948;SDS011;17637;51.984;21.208;2022-12-10T04:40:05;76.50;;;38.35;;
30948;SDS011;17637;51.984;21.208;2022-12-10T04:42:38;84.05;;;41.65;;
30948;SDS011;17637;51.984;21.208;2022-12-10T04:45:10;67.13;;;37.22;;
30948;SDS011;17637;51.984;21.208;2022-12-10T04:47:42;68.63;;;37.25;;
30948;SDS011;17637;51.984;21.208;2022-12-10T04:50:15;72.93;;;38.45;;
30948;SDS011;17637;51.984;21.208;2022-12-10T04:52:47;66.78;;;35.90;;
30948;SDS011;17637;51.984;21.208;2022-12-10T04:55:19;64.50;;;35.30;;
30948;SDS011;17637;51.984;21.208;2022-12-10T04:57:51;63.45;;;34.83;;
30948;SDS011;17637;51.984;21.208;2022-12-10T05:00:23;64.38;;;33.30;;
30948;SDS011;17637;51.984;21.208;2022-12-10T05:02:56;62.03;;;32.63;;
30948;SDS011;17637;51.984;21.208;2022-12-10T05:05:28;65.05;;;34.92;;
30948;SDS011;17637;51.984;21.208;2022-12-10T05:08:00;57.72;;;32.00;;
30948;SDS011;17637;51.984;21.208;2022-12-10T05:10:34;62.88;;;33.85;;
30948;SDS011;17637;51.984;21.208;2022-12-10T05:13:06;59.30;;;33.50;;
30948;SDS011;17637;51.984;21.208;2022-12-10T05:15:38;56.97;;;31.88;;
30948;SDS011;17637;51.984;21.208;2022-12-10T05:18:10;53.47;;;30.73;;
30948;SDS011;17637;51.984;21.208;2022-12-10T05:20:42;55.83;;;30.73;;
30948;SDS011;17637;51.984;21.208;2022-12-10T05:23:15;47.47;;;27.23;;
30948;SDS011;17637;51.984;21.208;2022-12-10T05:26:00;53.30;;;30.10;;
30948;SDS011;17637;51.984;21.208;2022-12-10T05:28:38;55.95;;;30.77;;
30948;SDS011;17637;51.984;21.208;2022-12-10T05:31:13;54.90;;;29.88;;
30948;SDS011;17637;51.984;21.208;2022-12-10T05:33:54;56.35;;;31.38;;
30948;SDS011;17637;51.984;21.208;2022-12-10T05:36:28;51.58;;;29.65;;
30948;SDS011;17637;51.984;21.208;2022-12-10T05:39:02;51.85;;;29.38;;
30948;SDS011;17637;51.984;21.208;2022-12-10T05:41:36;53.25;;;28.92;;
30948;SDS011;17637;51.984;21.208;2022-12-10T05:44:09;54.35;;;29.27;;
30948;SDS011;17637;51.984;21.208;2022-12-10T05:46:41;54.08;;;30.05;;
30948;SDS011;17637;51.984;21.208;2022-12-10T05:49:14;51.22;;;28.38;;
30948;SDS011;17637;51.984;21.208;2022-12-10T05:51:45;49.85;;;28.08;;
30948;SDS011;17637;51.984;21.208;2022-12-10T05:54:17;48.53;;;26.55;;
30948;SDS011;17637;51.984;21.208;2022-12-10T05:56:49;53.13;;;29.25;;
30948;SDS011;17637;51.984;21.208;2022-12-10T05:59:22;53.28;;;27.50;;
30948;SDS011;17637;51.984;21.208;2022-12-10T06:01:53;55.53;;;30.33;;
30948;SDS011;17637;51.984;21.208;2022-12-10T06:04:25;55.72;;;30.40;;
30948;SDS011;17637;51.984;21.208;2022-12-10T06:06:57;60.20;;;31.95;;
30948;SDS011;17637;51.984;21.208;2022-12-10T06:09:29;58.33;;;30.92;;
30948;SDS011;17637;51.984;21.208;2022-12-10T06:12:01;56.13;;;29.25;;
30948;SDS011;17637;51.984;21.208;2022-12-10T06:14:33;59.10;;;30.50;;
30948;SDS011;17637;51.984;21.208;2022-12-10T06:17:05;63.53;;;31.80;;
30948;SDS011;17637;51.984;21.208;2022-12-10T06:19:38;56.50;;;29.63;;
30948;SDS011;17637;51.984;21.208;2022-12-10T06:22:10;62.72;;;32.67;;
30948;SDS011;17637;51.984;21.208;2022-12-10T06:24:42;63.83;;;32.85;;
30948;SDS011;17637;51.984;21.208;2022-12-10T06:27:14;56.38;;;30.77;;
30948;SDS011;17637;51.984;21.208;2022-12-10T06:29:46;59.95;;;29.65;;
30948;SDS011;17637;51.984;21.208;2022-12-10T06:32:18;61.33;;;30.88;;
30948;SDS011;17637;51.984;21.208;2022-12-10T06:34:50;57.45;;;28.63;;
30948;SDS011;17637;51.984;21.208;2022-12-10T06:37:21;55.10;;;28.33;;
30948;SDS011;17637;51.984;21.208;2022-12-10T06:39:54;61.90;;;30.70;;
30948;SDS011;17637;51.984;21.208;2022-12-10T06:42:26;62.70;;;29.98;;
30948;SDS011;17637;51.984;21.208;2022-12-10T06:44:58;67.57;;;31.92;;
30948;SDS011;17637;51.984;21.208;2022-12-10T06:47:30;67.63;;;30.45;;
30948;SDS011;17637;51.984;21.208;2022-12-10T06:50:02;66.25;;;29.40;;
30948;SDS011;17637;51.984;21.208;2022-12-10T06:52:34;64.05;;;30.05;;
30948;SDS011;17637;51.984;21.208;2022-12-10T06:55:06;63.80;;;30.60;;
30948;SDS011;17637;51.984;21.208;2022-12-10T06:57:38;58.15;;;28.50;;
30948;SDS011;17637;51.984;21.208;2022-12-10T07:00:10;62.08;;;29.08;;
30948;SDS011;17637;51.984;21.208;2022-12-10T07:02:46;65.32;;;29.45;;
30948;SDS011;17637;51.984;21.208;2022-12-10T07:05:18;68.53;;;30.90;;
30948;SDS011;17637;51.984;21.208;2022-12-10T07:07:50;63.33;;;28.45;;
30948;SDS011;17637;51.984;21.208;2022-12-10T07:10:22;66.72;;;30.75;;
30948;SDS011;17637;51.984;21.208;2022-12-10T07:12:54;73.85;;;33.03;;
30948;SDS011;17637;51.984;21.208;2022-12-10T07:15:26;64.07;;;30.02;;
30948;SDS011;17637;51.984;21.208;2022-12-10T07:17:59;62.80;;;29.20;;
30948;SDS011;17637;51.984;21.208;2022-12-10T07:20:31;81.85;;;34.13;;
30948;SDS011;17637;51.984;21.208;2022-12-10T07:23:03;70.25;;;30.92;;
30948;SDS011;17637;51.984;21.208;2022-12-10T07:25:35;74.53;;;32.08;;
30948;SDS011;17637;51.984;21.208;2022-12-10T07:28:07;67.20;;;30.33;;
30948;SDS011;17637;51.984;21.208;2022-12-10T07:30:39;64.93;;;29.60;;
30948;SDS011;17637;51.984;21.208;2022-12-10T07:33:11;68.65;;;32.35;;
30948;SDS011;17637;51.984;21.208;2022-12-10T07:35:43;75.70;;;32.22;;
30948;SDS011;17637;51.984;21.208;2022-12-10T07:38:19;81.00;;;32.20;;
30948;SDS011;17637;51.984;21.208;2022-12-10T07:40:51;83.00;;;35.72;;
30948;SDS011;17637;51.984;21.208;2022-12-10T07:43:23;74.55;;;32.28;;
30948;SDS011;17637;51.984;21.208;2022-12-10T07:45:55;78.97;;;32.45;;
30948;SDS011;17637;51.984;21.208;2022-12-10T07:48:27;78.55;;;32.85;;
30948;SDS011;17637;51.984;21.208;2022-12-10T07:50:59;80.15;;;31.30;;
30948;SDS011;17637;51.984;21.208;2022-12-10T07:53:32;84.47;;;31.83;;
30948;SDS011;17637;51.984;21.208;2022-12-10T07:56:04;81.25;;;32.60;;
30948;SDS011;17637;51.984;21.208;2022-12-10T07:58:37;86.60;;;33.33;;
30948;SDS011;17637;51.984;21.208;2022-12-10T08:01:14;87.40;;;34.85;;
30948;SDS011;17637;51.984;21.208;2022-12-10T08:03:47;86.35;;;35.88;;
30948;SDS011;17637;51.984;21.208;2022-12-10T08:06:20;88.05;;;35.03;;
30948;SDS011;17637;51.984;21.208;2022-12-10T08:08:52;89.30;;;34.58;;
30948;SDS011;17637;51.984;21.208;2022-12-10T08:11:25;86.25;;;34.65;;
30948;SDS011;17637;51.984;21.208;2022-12-10T08:13:58;81.82;;;33.72;;
30948;SDS011;17637;51.984;21.208;2022-12-10T08:16:30;89.03;;;35.60;;
30948;SDS011;17637;51.984;21.208;2022-12-10T08:19:05;100.55;;;36.10;;
30948;SDS011;17637;51.984;21.208;2022-12-10T08:21:37;87.43;;;35.95;;
30948;SDS011;17637;51.984;21.208;2022-12-10T08:24:09;91.57;;;36.15;;
30948;SDS011;17637;51.984;21.208;2022-12-10T08:26:40;81.47;;;34.90;;
30948;SDS011;17637;51.984;21.208;2022-12-10T08:29:12;112.22;;;39.67;;
30948;SDS011;17637;51.984;21.208;2022-12-10T08:31:44;94.40;;;37.50;;
30948;SDS011;17637;51.984;21.208;2022-12-10T08:34:17;78.80;;;33.67;;
30948;SDS011;17637;51.984;21.208;2022-12-10T08:36:50;75.03;;;35.40;;
30948;SDS011;17637;51.984;21.208;2022-12-10T08:39:22;83.72;;;34.70;;
30948;SDS011;17637;51.984;21.208;2022-12-10T08:41:54;76.70;;;33.20;;
30948;SDS011;17637;51.984;21.208;2022-12-10T08:44:26;70.53;;;31.17;;
30948;SDS011;17637;51.984;21.208;2022-12-10T08:46:58;87.88;;;36.80;;
30948;SDS011;17637;51.984;21.208;2022-12-10T08:49:30;87.43;;;34.63;;
30948;SDS011;17637;51.984;21.208;2022-12-10T08:52:02;72.38;;;33.08;;
30948;SDS011;17637;51.984;21.208;2022-12-10T08:54:34;80.10;;;33.42;;
30948;SDS011;17637;51.984;21.208;2022-12-10T08:57:06;77.95;;;33.47;;
30948;SDS011;17637;51.984;21.208;2022-12-10T08:59:38;80.72;;;33.00;;
30948;SDS011;17637;51.984;21.208;2022-12-10T09:02:10;80.63;;;33.63;;
30948;SDS011;17637;51.984;21.208;2022-12-10T09:04:43;74.65;;;32.28;;
30948;SDS011;17637;51.984;21.208;2022-12-10T09:07:17;77.57;;;32.70;;
30948;SDS011;17637;51.984;21.208;2022-12-10T09:09:49;89.38;;;35.80;;
30948;SDS011;17637;51.984;21.208;2022-12-10T09:12:21;85.00;;;34.70;;
30948;SDS011;17637;51.984;21.208;2022-12-10T09:14:53;76.05;;;34.35;;
30948;SDS011;17637;51.984;21.208;2022-12-10T09:17:26;76.38;;;33.03;;
30948;SDS011;17637;51.984;21.208;2022-12-10T09:19:58;82.57;;;33.40;;
30948;SDS011;17637;51.984;21.208;2022-12-10T09:22:30;79.90;;;34.92;;
30948;SDS011;17637;51.984;21.208;2022-12-10T09:25:06;79.22;;;36.45;;
30948;SDS011;17637;51.984;21.208;2022-12-10T09:27:41;74.22;;;34.00;;
30948;SDS011;17637;51.984;21.208;2022-12-10T09:30:14;75.47;;;33.45;;
30948;SDS011;17637;51.984;21.208;2022-12-10T09:32:46;80.53;;;34.92;;
30948;SDS011;17637;51.984;21.208;2022-12-10T09:35:18;81.10;;;35.38;;
30948;SDS011;17637;51.984;21.208;2022-12-10T09:37:50;77.88;;;34.10;;
30948;SDS011;17637;51.984;21.208;2022-12-10T09:40:29;78.40;;;33.00;;
30948;SDS011;17637;51.984;21.208;2022-12-10T09:43:39;72.05;;;31.17;;
30948;SDS011;17637;51.984;21.208;2022-12-10T09:49:12;72.32;;;29.90;;
30948;SDS011;17637;51.984;21.208;2022-12-10T09:51:55;67.57;;;29.98;;
30948;SDS011;17637;51.984;21.208;2022-12-10T09:54:40;71.95;;;30.02;;
30948;SDS011;17637;51.984;21.208;2022-12-10T09:57:22;83.10;;;32.75;;
30948;SDS011;17637;51.984;21.208;2022-12-10T10:00:00;75.18;;;30.90;;
30948;SDS011;17637;51.984;21.208;2022-12-10T10:02:39;66.13;;;29.30;;
30948;SDS011;17637;51.984;21.208;2022-12-10T10:05:13;62.30;;;28.13;;
30948;SDS011;17637;51.984;21.208;2022-12-10T10:07:57;71.50;;;30.50;;
30948;SDS011;17637;51.984;21.208;2022-12-10T10:10:36;70.18;;;29.90;;
30948;SDS011;17637;51.984;21.208;2022-12-10T10:13:28;79.05;;;32.25;;
30948;SDS011;17637;51.984;21.208;2022-12-10T10:16:36;81.18;;;35.15;;
30948;SDS011;17637;51.984;21.208;2022-12-10T10:19:28;80.15;;;35.20;;
30948;SDS011;17637;51.984;21.208;2022-12-10T10:22:04;83.88;;;36.20;;
30948;SDS011;17637;51.984;21.208;2022-12-10T10:24:39;83.63;;;36.55;;
30948;SDS011;17637;51.984;21.208;2022-12-10T10:27:15;70.78;;;32.40;;
30948;SDS011;17637;51.984;21.208;2022-12-10T10:29:49;71.70;;;32.60;;
30948;SDS011;17637;51.984;21.208;2022-12-10T10:32:43;66.78;;;29.98;;
30948;SDS011;17637;51.984;21.208;2022-12-10T10:38:01;67.97;;;32.30;;
30948;SDS011;17637;51.984;21.208;2022-12-10T10:40:42;73.50;;;33.67;;
30948;SDS011;17637;51.984;21.208;2022-12-10T10:43:18;63.83;;;29.83;;
30948;SDS011;17637;51.984;21.208;2022-12-10T10:48:48;66.60;;;30.27;;
30948;SDS011;17637;51.984;21.208;2022-12-10T10:51:21;70.75;;;31.80;;
30948;SDS011;17637;51.984;21.208;2022-12-10T10:53:56;78.45;;;32.75;;
30948;SDS011;17637;51.984;21.208;2022-12-10T10:56:32;75.93;;;33.20;;
30948;SDS011;17637;51.984;21.208;2022-12-10T11:01:50;67.18;;;31.17;;
30948;SDS011;17637;51.984;21.208;2022-12-10T11:04:27;83.40;;;35.42;;
30948;SDS011;17637;51.984;21.208;2022-12-10T11:07:20;79.03;;;35.80;;
30948;SDS011;17637;51.984;21.208;2022-12-10T11:10:18;81.78;;;34.80;;
30948;SDS011;17637;51.984;21.208;2022-12-10T11:12:57;80.15;;;37.03;;
30948;SDS011;17637;51.984;21.208;2022-12-10T11:15:38;74.55;;;35.75;;
30948;SDS011;17637;51.984;21.208;2022-12-10T11:21:06;83.15;;;35.65;;
30948;SDS011;17637;51.984;21.208;2022-12-10T11:23:40;76.80;;;34.38;;
30948;SDS011;17637;51.984;21.208;2022-12-10T11:28:57;82.07;;;36.55;;
30948;SDS011;17637;51.984;21.208;2022-12-10T11:32:55;65.80;;;30.98;;
30948;SDS011;17637;51.984;21.208;2022-12-10T11:46:48;69.97;;;33.83;;
30948;SDS011;17637;51.984;21.208;2022-12-10T12:01:21;75.20;;;33.90;;
30948;SDS011;17637;51.984;21.208;2022-12-10T12:13:16;79.25;;;38.67;;
30948;SDS011;17637;51.984;21.208;2022-12-10T12:16:11;78.22;;;36.65;;
30948;SDS011;17637;51.984;21.208;2022-12-10T12:21:56;64.45;;;32.35;;
30948;SDS011;17637;51.984;21.208;2022-12-10T12:24:36;68.78;;;32.03;;
30948;SDS011;17637;51.984;21.208;2022-12-10T12:27:21;66.60;;;30.15;;
30948;SDS011;17637;51.984;21.208;2022-12-10T12:30:12;68.68;;;29.80;;
30948;SDS011;17637;51.984;21.208;2022-12-10T12:35:58;62.15;;;30.50;;
30948;SDS011;17637;51.984;21.208;2022-12-10T12:44:32;60.00;;;29.95;;
30948;SDS011;17637;51.984;21.208;2022-12-10T12:50:00;67.07;;;33.42;;
30948;SDS011;17637;51.984;21.208;2022-12-10T12:52:38;70.03;;;32.75;;
30948;SDS011;17637;51.984;21.208;2022-12-10T12:55:17;72.27;;;35.03;;
30948;SDS011;17637;51.984;21.208;2022-12-10T13:03:46;72.07;;;37.72;;
30948;SDS011;17637;51.984;21.208;2022-12-10T13:06:22;71.60;;;35.95;;
30948;SDS011;17637;51.984;21.208;2022-12-10T13:11:45;78.88;;;38.22;;
30948;SDS011;17637;51.984;21.208;2022-12-10T13:24:07;80.50;;;37.80;;
30948;SDS011;17637;51.984;21.208;2022-12-10T13:27:04;73.10;;;37.65;;
30948;SDS011;17637;51.984;21.208;2022-12-10T13:46:31;76.10;;;37.65;;
30948;SDS011;17637;51.984;21.208;2022-12-10T13:49:05;71.47;;;39.17;;
30948;SDS011;17637;51.984;21.208;2022-12-10T13:51:58;74.70;;;38.00;;
30948;SDS011;17637;51.984;21.208;2022-12-10T14:00:21;75.35;;;37.72;;
30948;SDS011;17637;51.984;21.208;2022-12-10T14:11:30;83.22;;;38.15;;
30948;SDS011;17637;51.984;21.208;2022-12-10T14:14:13;76.45;;;37.38;;
30948;SDS011;17637;51.984;21.208;2022-12-10T14:16:52;87.40;;;40.17;;
30948;SDS011;17637;51.984;21.208;2022-12-10T14:19:27;89.28;;;41.95;;
30948;SDS011;17637;51.984;21.208;2022-12-10T14:22:04;87.15;;;41.15;;
30948;SDS011;17637;51.984;21.208;2022-12-10T14:24:38;82.25;;;39.53;;
30948;SDS011;17637;51.984;21.208;2022-12-10T14:27:13;77.53;;;37.83;;
30948;SDS011;17637;51.984;21.208;2022-12-10T14:29:48;83.88;;;38.63;;
30948;SDS011;17637;51.984;21.208;2022-12-10T14:32:27;80.68;;;37.47;;
30948;SDS011;17637;51.984;21.208;2022-12-10T14:35:05;78.95;;;38.28;;
30948;SDS011;17637;51.984;21.208;2022-12-10T14:37:43;84.35;;;37.15;;
30948;SDS011;17637;51.984;21.208;2022-12-10T14:40:27;86.72;;;41.88;;
30948;SDS011;17637;51.984;21.208;2022-12-10T14:43:06;96.43;;;42.65;;
30948;SDS011;17637;51.984;21.208;2022-12-10T14:45:47;94.57;;;42.75;;
30948;SDS011;17637;51.984;21.208;2022-12-10T14:48:25;90.68;;;41.58;;
30948;SDS011;17637;51.984;21.208;2022-12-10T14:51:10;86.25;;;41.88;;
30948;SDS011;17637;51.984;21.208;2022-12-10T14:53:46;82.38;;;39.45;;
30948;SDS011;17637;51.984;21.208;2022-12-10T14:59:09;86.50;;;41.97;;
30948;SDS011;17637;51.984;21.208;2022-12-10T15:02:02;85.03;;;40.13;;
30948;SDS011;17637;51.984;21.208;2022-12-10T15:04:45;88.57;;;42.45;;
30948;SDS011;17637;51.984;21.208;2022-12-10T15:07:20;79.38;;;40.40;;
30948;SDS011;17637;51.984;21.208;2022-12-10T15:09:55;95.70;;;42.80;;
30948;SDS011;17637;51.984;21.208;2022-12-10T15:12:32;93.40;;;43.92;;
30948;SDS011;17637;51.984;21.208;2022-12-10T15:15:34;85.50;;;41.33;;
30948;SDS011;17637;51.984;21.208;2022-12-10T15:18:09;83.50;;;41.22;;
30948;SDS011;17637;51.984;21.208;2022-12-10T15:20:47;77.50;;;39.50;;
30948;SDS011;17637;51.984;21.208;2022-12-10T15:23:30;86.57;;;40.72;;
30948;SDS011;17637;51.984;21.208;2022-12-10T15:26:09;76.15;;;37.95;;
30948;SDS011;17637;51.984;21.208;2022-12-10T15:28:44;80.50;;;39.70;;
30948;SDS011;17637;51.984;21.208;2022-12-10T15:34:00;75.47;;;37.97;;
30948;SDS011;17637;51.984;21.208;2022-12-10T15:36:54;83.45;;;40.90;;
30948;SDS011;17637;51.984;21.208;2022-12-10T15:39:36;81.20;;;40.58;;
30948;SDS011;17637;51.984;21.208;2022-12-10T15:47:50;73.22;;;38.53;;
30948;SDS011;17637;51.984;21.208;2022-12-10T15:50:23;83.25;;;45.30;;
30948;SDS011;17637;51.984;21.208;2022-12-10T15:52:56;79.75;;;40.50;;
30948;SDS011;17637;51.984;21.208;2022-12-10T15:55:28;87.40;;;41.50;;
30948;SDS011;17637;51.984;21.208;2022-12-10T15:58:00;80.55;;;41.65;;
30948;SDS011;17637;51.984;21.208;2022-12-10T16:00:32;76.22;;;41.65;;
30948;SDS011;17637;51.984;21.208;2022-12-10T16:03:04;74.22;;;40.03;;
30948;SDS011;17637;51.984;21.208;2022-12-10T16:05:43;67.78;;;36.83;;
30948;SDS011;17637;51.984;21.208;2022-12-10T16:10:54;66.20;;;37.47;;
30948;SDS011;17637;51.984;21.208;2022-12-10T16:13:35;64.68;;;36.45;;
30948;SDS011;17637;51.984;21.208;2022-12-10T16:16:09;61.53;;;34.17;;
30948;SDS011;17637;51.984;21.208;2022-12-10T16:18:42;65.78;;;37.13;;
30948;SDS011;17637;51.984;21.208;2022-12-10T16:21:14;60.95;;;36.03;;
30948;SDS011;17637;51.984;21.208;2022-12-10T16:23:46;68.43;;;39.28;;
30948;SDS011;17637;51.984;21.208;2022-12-10T16:26:21;60.13;;;35.45;;
30948;SDS011;17637;51.984;21.208;2022-12-10T16:28:54;61.85;;;37.30;;
30948;SDS011;17637;51.984;21.208;2022-12-10T16:31:26;62.38;;;36.30;;
30948;SDS011;17637;51.984;21.208;2022-12-10T16:33:58;67.72;;;39.05;;
30948;SDS011;17637;51.984;21.208;2022-12-10T16:36:30;60.70;;;35.78;;
30948;SDS011;17637;51.984;21.208;2022-12-10T16:39:02;58.55;;;34.58;;
30948;SDS011;17637;51.984;21.208;2022-12-10T16:41:35;59.75;;;34.97;;
30948;SDS011;17637;51.984;21.208;2022-12-10T16:44:07;60.78;;;35.50;;
30948;SDS011;17637;51.984;21.208;2022-12-10T16:46:40;62.17;;;36.88;;
30948;SDS011;17637;51.984;21.208;2022-12-10T16:49:13;66.30;;;37.88;;
30948;SDS011;17637;51.984;21.208;2022-12-10T16:51:45;64.00;;;35.75;;
30948;SDS011;17637;51.984;21.208;2022-12-10T16:54:17;64.90;;;36.58;;
30948;SDS011;17637;51.984;21.208;2022-12-10T16:56:49;62.60;;;36.65;;
30948;SDS011;17637;51.984;21.208;2022-12-10T16:59:21;58.05;;;35.47;;
30948;SDS011;17637;51.984;21.208;2022-12-10T17:01:53;57.08;;;34.13;;
30948;SDS011;17637;51.984;21.208;2022-12-10T17:04:26;55.58;;;31.95;;
30948;SDS011;17637;51.984;21.208;2022-12-10T17:06:57;50.75;;;31.10;;
30948;SDS011;17637;51.984;21.208;2022-12-10T17:09:29;47.20;;;29.05;;
30948;SDS011;17637;51.984;21.208;2022-12-10T17:12:01;54.05;;;32.15;;
30948;SDS011;17637;51.984;21.208;2022-12-10T17:14:41;50.13;;;30.52;;
30948;SDS011;17637;51.984;21.208;2022-12-10T17:17:17;55.10;;;32.38;;
30948;SDS011;17637;51.984;21.208;2022-12-10T17:19:49;58.60;;;34.80;;
30948;SDS011;17637;51.984;21.208;2022-12-10T17:22:21;58.70;;;35.08;;
30948;SDS011;17637;51.984;21.208;2022-12-10T17:24:54;62.22;;;36.95;;
30948;SDS011;17637;51.984;21.208;2022-12-10T17:27:26;54.35;;;32.13;;
30948;SDS011;17637;51.984;21.208;2022-12-10T17:29:58;52.97;;;32.63;;
30948;SDS011;17637;51.984;21.208;2022-12-10T17:32:30;59.25;;;35.45;;
30948;SDS011;17637;51.984;21.208;2022-12-10T17:35:03;55.00;;;33.78;;